createdAt,value
2019-05-13T00:01:40.834Z,6.23
2019-05-13T00:04:10.912Z,7.27
2019-05-13T00:06:53.126Z,7.97
2019-05-13T00:09:14.111Z,7.10
2019-05-13T00:11:44.453Z,6.17
2019-05-13T00:14:14.614Z,5.57
2019-05-13T00:16:44.995Z,6.83
2019-05-13T00:19:15.238Z,9.10
2019-05-13T00:21:45.277Z,5.87
2019-05-13T00:24:15.441Z,6.70
2019-05-13T00:26:45.560Z,6.07
2019-05-13T00:29:15.679Z,4.67
2019-05-13T00:31:45.812Z,8.37
2019-05-13T00:34:16.186Z,6.00
2019-05-13T00:36:46.398Z,8.50
2019-05-13T00:39:16.542Z,7.73
2019-05-13T00:41:46.669Z,9.53
2019-05-13T00:44:16.725Z,7.83
2019-05-13T00:46:46.842Z,4.70
2019-05-13T00:49:16.993Z,7.40
2019-05-13T00:51:47.105Z,5.77
2019-05-13T00:54:17.239Z,7.53
2019-05-13T00:56:47.270Z,7.77
2019-05-13T00:59:17.335Z,7.87
2019-05-13T01:01:47.369Z,6.90
2019-05-13T01:04:20.306Z,5.80
2019-05-13T01:06:50.458Z,4.97
2019-05-13T01:09:20.578Z,6.70
2019-05-13T01:11:50.630Z,5.10
2019-05-13T01:14:20.747Z,6.37
2019-05-13T01:16:50.868Z,5.33
2019-05-13T01:19:23.532Z,5.70
2019-05-13T01:21:54.038Z,6.63
2019-05-13T01:24:24.557Z,9.00
2019-05-13T01:26:54.734Z,6.10
2019-05-13T01:29:24.872Z,4.53
2019-05-13T01:31:54.971Z,6.77
2019-05-13T01:34:25.109Z,5.67
2019-05-13T01:36:55.293Z,5.10
2019-05-13T01:39:25.414Z,5.67
2019-05-13T01:41:55.473Z,4.70
2019-05-13T01:44:25.630Z,4.80
2019-05-13T01:46:55.759Z,8.10
2019-05-13T01:49:25.870Z,5.43
2019-05-13T01:51:55.909Z,5.37
2019-05-13T01:54:26.071Z,4.53
2019-05-13T01:56:56.122Z,4.90
2019-05-13T01:59:26.175Z,5.20
2019-05-13T02:01:56.291Z,6.13
2019-05-13T02:04:26.442Z,6.13
2019-05-13T02:06:56.610Z,5.43
2019-05-13T02:09:26.722Z,5.97
2019-05-13T02:11:56.773Z,4.43
2019-05-13T02:14:26.889Z,4.53
2019-05-13T02:16:56.974Z,6.70
2019-05-13T02:19:27.046Z,4.80
2019-05-13T02:21:57.238Z,7.30
2019-05-13T02:24:27.301Z,4.97
2019-05-13T02:26:57.437Z,4.30
2019-05-13T02:29:27.546Z,3.97
2019-05-13T02:31:57.656Z,4.70
2019-05-13T02:34:27.856Z,5.07
2019-05-13T02:36:57.950Z,4.90
2019-05-13T02:39:28.073Z,6.57
2019-05-13T02:41:58.190Z,4.10
2019-05-13T02:44:28.250Z,6.23
2019-05-13T02:47:02.964Z,4.63
2019-05-13T02:49:32.513Z,5.63
2019-05-13T02:52:03.327Z,7.37
2019-05-13T02:54:34.439Z,7.13
2019-05-13T02:57:04.884Z,6.13
2019-05-13T02:59:35.117Z,5.57
2019-05-13T03:02:05.222Z,6.07
2019-05-13T03:04:35.372Z,4.87
2019-05-13T03:07:05.442Z,5.73
2019-05-13T03:09:35.483Z,7.77
2019-05-13T03:12:05.531Z,5.50
2019-05-13T03:14:35.686Z,5.13
2019-05-13T03:17:14.543Z,6.73
2019-05-13T03:19:44.577Z,7.83
2019-05-13T03:22:14.727Z,6.07
2019-05-13T03:24:44.843Z,7.20
2019-05-13T03:27:19.632Z,6.33
2019-05-13T03:29:46.783Z,7.30
2019-05-13T03:32:17.498Z,4.43
2019-05-13T03:34:47.634Z,6.03
2019-05-13T03:37:18.190Z,5.43
2019-05-13T03:39:52.149Z,11.47
2019-05-13T03:42:24.611Z,6.10
2019-05-13T03:44:56.179Z,6.97
2019-05-13T03:47:26.850Z,9.03
2019-05-13T03:50:03.296Z,7.10
2019-05-13T03:52:33.670Z,8.27
2019-05-13T03:55:03.606Z,6.73
2019-05-13T03:57:35.198Z,6.07
2019-05-13T04:00:06.040Z,7.23
2019-05-13T04:02:36.319Z,6.47
2019-05-13T04:05:06.528Z,5.27
2019-05-13T04:07:36.714Z,8.23
2019-05-13T04:10:07.235Z,9.90
2019-05-13T04:12:37.381Z,6.87
2019-05-13T04:15:07.798Z,9.43
2019-05-13T04:17:38.022Z,8.03
2019-05-13T04:20:12.367Z,5.60
2019-05-13T04:22:42.506Z,7.57
2019-05-13T04:25:12.922Z,6.10
2019-05-13T04:27:43.291Z,5.87
2019-05-13T04:30:13.780Z,11.37
2019-05-13T04:32:44.373Z,6.73
2019-05-13T04:35:14.549Z,5.57
2019-05-13T04:37:44.752Z,10.17
2019-05-13T04:40:14.946Z,7.43
2019-05-13T04:42:45.059Z,5.83
2019-05-13T04:45:15.162Z,8.00
2019-05-13T04:47:45.201Z,6.23
2019-05-13T04:50:15.453Z,7.00
2019-05-13T04:53:04.562Z,7.10
2019-05-13T04:55:34.656Z,7.30
2019-05-13T04:58:04.950Z,6.70
2019-05-13T05:01:23.479Z,8.67
2019-05-13T05:04:03.683Z,7.27
2019-05-13T05:07:29.197Z,9.00
2019-05-13T05:10:21.190Z,7.33
2019-05-13T05:13:07.333Z,5.33
2019-05-13T05:16:26.447Z,6.13
2019-05-13T05:19:31.854Z,9.60
2019-05-13T05:22:31.448Z,7.90
2019-05-13T05:25:17.538Z,6.10
2019-05-13T05:28:16.254Z,7.37
2019-05-13T05:31:26.490Z,7.60
2019-05-13T05:34:41.923Z,10.00
2019-05-13T05:37:54.429Z,9.37
2019-05-13T05:40:31.316Z,6.73
2019-05-13T05:43:02.375Z,8.03
2019-05-13T05:45:36.670Z,7.10
2019-05-13T05:48:07.754Z,7.07
2019-05-13T05:50:38.721Z,8.87
2019-05-13T05:53:11.136Z,13.03
2019-05-13T05:55:42.565Z,10.93
2019-05-13T05:58:13.951Z,7.07
2019-05-13T06:00:46.033Z,8.17
2019-05-13T06:03:16.491Z,6.03
2019-05-13T06:05:47.999Z,6.43
2019-05-13T06:08:18.226Z,7.17
2019-05-13T06:10:51.307Z,8.00
2019-05-13T06:13:21.456Z,7.53
2019-05-13T06:15:51.824Z,8.40
2019-05-13T06:18:22.409Z,6.50
2019-05-13T06:20:52.609Z,10.07
2019-05-13T06:23:23.268Z,8.97
2019-05-13T06:25:53.469Z,4.67
2019-05-13T06:28:23.602Z,6.37
2019-05-13T06:30:53.748Z,5.23
2019-05-13T06:33:23.876Z,7.97
2019-05-13T06:35:54.193Z,6.30
2019-05-13T06:38:24.371Z,4.73
2019-05-13T06:41:03.297Z,9.83
2019-05-13T06:43:26.258Z,6.93
2019-05-13T06:45:56.415Z,6.77
2019-05-13T06:48:26.522Z,9.67
2019-05-13T06:50:56.652Z,7.23
2019-05-13T06:53:26.777Z,8.40
2019-05-13T06:55:56.970Z,5.93
2019-05-13T06:58:27.029Z,6.73
2019-05-13T07:00:58.544Z,8.10
2019-05-13T07:03:28.964Z,8.70
2019-05-13T07:06:01.639Z,6.53
2019-05-13T07:08:31.407Z,9.63
2019-05-13T07:11:17.187Z,14.97
2019-05-13T07:13:33.651Z,8.73
2019-05-13T07:16:03.829Z,9.83
2019-05-13T07:18:33.911Z,11.37
2019-05-13T07:21:04.051Z,10.73
2019-05-13T07:23:34.202Z,11.43
2019-05-13T07:26:04.602Z,12.30
2019-05-13T07:28:34.803Z,9.47
2019-05-13T07:31:05.094Z,9.50
2019-05-13T07:33:35.550Z,14.33
2019-05-13T07:36:08.581Z,13.70
2019-05-13T07:38:41.441Z,7.27
2019-05-13T07:41:12.026Z,10.43
2019-05-13T07:43:42.739Z,9.17
2019-05-13T07:46:13.974Z,14.50
2019-05-13T07:48:44.079Z,7.27
2019-05-13T07:51:15.414Z,9.97
2019-05-13T07:53:45.571Z,8.17
2019-05-13T07:56:15.732Z,9.93
2019-05-13T07:58:45.968Z,11.10
2019-05-13T08:01:16.073Z,9.57
2019-05-13T08:03:46.230Z,9.40
2019-05-13T08:06:16.342Z,9.83
2019-05-13T08:08:46.537Z,10.80
2019-05-13T08:11:16.656Z,7.73
2019-05-13T08:13:46.710Z,11.07
2019-05-13T08:16:16.818Z,9.93
2019-05-13T08:18:46.857Z,12.80
2019-05-13T08:21:16.970Z,10.53
2019-05-13T08:23:47.116Z,11.40
2019-05-13T08:26:17.193Z,13.03
2019-05-13T08:29:00.286Z,9.57
2019-05-13T08:31:21.416Z,12.97
2019-05-13T08:33:51.896Z,17.77
2019-05-13T08:36:23.463Z,13.87
2019-05-13T08:38:53.779Z,18.27
2019-05-13T08:41:23.817Z,15.00
2019-05-13T08:43:53.994Z,17.27
2019-05-13T08:46:27.052Z,13.87
2019-05-13T08:48:57.270Z,20.20
2019-05-13T08:51:27.393Z,13.57
2019-05-13T08:53:59.134Z,13.20
2019-05-13T08:56:29.327Z,14.67
2019-05-13T08:59:01.152Z,16.93
2019-05-13T09:01:31.951Z,14.57
2019-05-13T09:04:02.780Z,14.50
2019-05-13T09:06:34.039Z,15.37
2019-05-13T09:09:06.396Z,15.53
2019-05-13T09:11:36.548Z,14.53
2019-05-13T09:14:06.613Z,15.50
2019-05-13T09:16:36.762Z,17.20
2019-05-13T09:19:07.070Z,16.07
2019-05-13T09:21:37.191Z,11.67
2019-05-13T09:24:20.838Z,12.87
2019-05-13T09:26:41.933Z,11.57
2019-05-13T09:29:11.920Z,10.33
2019-05-13T09:31:42.195Z,11.87
2019-05-13T09:34:12.432Z,14.53
2019-05-13T09:36:42.564Z,13.53
2019-05-13T09:39:12.863Z,12.10
2019-05-13T09:41:44.635Z,13.57
2019-05-13T09:44:15.163Z,12.00
2019-05-13T09:46:45.285Z,13.93
2019-05-13T09:49:19.713Z,11.73
2019-05-13T09:51:47.326Z,12.00
2019-05-13T09:54:17.446Z,12.43
2019-05-13T09:56:47.693Z,12.60
2019-05-13T09:59:17.749Z,12.43
2019-05-13T10:01:47.920Z,13.53
2019-05-13T10:04:18.028Z,12.93
2019-05-13T10:06:48.254Z,9.63
2019-05-13T10:09:18.443Z,12.00
2019-05-13T10:11:48.579Z,17.33
2019-05-13T10:14:18.823Z,12.17
2019-05-13T10:16:51.331Z,12.53
2019-05-13T10:19:21.460Z,14.13
2019-05-13T10:21:52.665Z,12.17
2019-05-13T10:24:23.219Z,20.30
2019-05-13T10:26:53.822Z,13.37
2019-05-13T10:29:24.456Z,14.97
2019-05-13T10:31:54.762Z,17.60
2019-05-13T10:34:24.907Z,14.00
2019-05-13T10:36:55.427Z,13.53
2019-05-13T10:39:25.601Z,13.87
2019-05-13T10:41:55.650Z,14.40
2019-05-13T10:44:25.925Z,12.20
2019-05-13T10:46:56.124Z,12.50
2019-05-13T10:49:26.260Z,14.17
2019-05-13T10:51:56.382Z,11.63
2019-05-13T10:54:26.438Z,13.73
2019-05-13T10:56:59.756Z,18.73
2019-05-13T10:59:28.373Z,13.87
2019-05-13T11:01:58.528Z,10.30
2019-05-13T11:04:28.923Z,14.17
2019-05-13T11:07:02.404Z,10.93
2019-05-13T11:09:32.677Z,12.53
2019-05-13T11:12:03.733Z,14.83
2019-05-13T11:14:33.930Z,12.57
2019-05-13T11:17:04.222Z,10.87
2019-05-13T11:19:37.127Z,8.47
2019-05-13T11:22:06.274Z,13.17
2019-05-13T11:24:36.321Z,9.20
2019-05-13T11:27:06.426Z,10.30
2019-05-13T11:29:36.566Z,8.90
2019-05-13T11:32:07.022Z,9.27
2019-05-13T11:34:37.178Z,11.27
2019-05-13T11:37:07.383Z,8.30
2019-05-13T11:39:37.574Z,8.63
2019-05-13T11:42:07.630Z,11.60
2019-05-13T11:44:37.775Z,7.10
2019-05-13T11:47:08.258Z,7.13
2019-05-13T11:49:38.469Z,6.17
2019-05-13T11:52:08.606Z,10.90
2019-05-13T11:54:38.728Z,7.90
2019-05-13T11:57:11.689Z,8.87
2019-05-13T11:59:42.936Z,8.67
2019-05-13T12:02:13.603Z,8.03
2019-05-13T12:04:44.329Z,11.40
2019-05-13T12:07:14.393Z,9.13
2019-05-13T12:09:45.308Z,5.10
2019-05-13T12:12:15.367Z,5.60
2019-05-13T12:15:17.780Z,6.23
2019-05-13T12:17:17.622Z,5.47
2019-05-13T12:19:48.794Z,9.50
2019-05-13T12:22:22.720Z,9.73
2019-05-13T12:24:51.648Z,8.10
2019-05-13T12:27:22.574Z,7.27
2019-05-13T12:29:53.170Z,8.40
2019-05-13T12:32:23.373Z,6.23
2019-05-13T12:34:53.626Z,4.93
2019-05-13T12:37:23.757Z,9.77
2019-05-13T12:39:54.097Z,6.80
2019-05-13T12:42:24.281Z,9.93
2019-05-13T12:45:09.357Z,7.83
2019-05-13T12:47:26.171Z,6.53
2019-05-13T12:49:56.385Z,8.40
2019-05-13T12:52:26.602Z,5.03
2019-05-13T12:54:57.040Z,6.03
2019-05-13T12:57:27.246Z,7.40
2019-05-13T12:59:57.484Z,4.73
2019-05-13T13:02:27.621Z,4.10
2019-05-13T13:05:09.362Z,6.43
2019-05-13T13:07:33.409Z,8.30
2019-05-13T13:10:01.455Z,7.37
2019-05-13T13:12:36.127Z,4.07
2019-05-13T13:15:31.758Z,8.00
2019-05-13T13:17:35.331Z,7.03
2019-05-13T13:20:09.632Z,4.20
2019-05-13T13:22:39.030Z,7.27
2019-05-13T13:25:09.234Z,7.50
2019-05-13T13:28:06.757Z,3.93
2019-05-13T13:30:11.806Z,4.97
2019-05-13T13:32:45.351Z,8.23
2019-05-13T13:35:14.962Z,5.93
2019-05-13T13:37:46.226Z,3.63
2019-05-13T13:40:24.531Z,7.40
2019-05-13T13:42:48.432Z,7.37
2019-05-13T13:45:18.751Z,4.23
2019-05-13T13:47:59.230Z,5.87
2019-05-13T13:50:24.612Z,6.03
2019-05-13T13:52:53.076Z,6.10
2019-05-13T13:55:25.879Z,3.93
2019-05-13T13:57:56.730Z,3.53
2019-05-13T14:00:38.441Z,3.17
2019-05-13T14:02:59.111Z,6.00
2019-05-13T14:05:29.373Z,4.23
2019-05-13T14:08:01.712Z,4.50
2019-05-13T14:10:31.920Z,4.17
2019-05-13T14:13:04.867Z,7.83
2019-05-13T14:15:35.211Z,5.07
2019-05-13T14:18:05.437Z,4.77
2019-05-13T14:20:35.531Z,5.43
2019-05-13T14:23:05.737Z,6.27
2019-05-13T14:25:35.962Z,5.27
2019-05-13T14:28:06.231Z,5.37
2019-05-13T14:30:36.724Z,7.57
2019-05-13T14:33:07.143Z,5.77
2019-05-13T14:35:37.606Z,10.40
2019-05-13T14:38:08.037Z,9.57
2019-05-13T14:40:38.310Z,11.17
2019-05-13T14:43:08.811Z,8.27
2019-05-13T14:45:39.039Z,8.77
2019-05-13T14:48:09.205Z,6.13
2019-05-13T14:50:41.399Z,6.10
2019-05-13T14:53:11.158Z,5.10
2019-05-13T14:55:41.966Z,6.13
2019-05-13T14:58:12.216Z,10.80
2019-05-13T15:00:42.383Z,10.10
2019-05-13T15:03:13.203Z,8.17
2019-05-13T15:05:43.553Z,6.97
2019-05-13T15:08:13.743Z,6.77
2019-05-13T15:10:44.054Z,7.90
2019-05-13T15:13:14.276Z,12.73
2019-05-13T15:15:44.356Z,10.27
2019-05-13T15:18:14.452Z,8.03
2019-05-13T15:20:44.890Z,8.60
2019-05-13T15:23:15.585Z,8.10
2019-05-13T15:25:45.773Z,7.17
2019-05-13T15:28:15.980Z,9.43
2019-05-13T15:30:46.244Z,11.00
2019-05-13T15:33:16.432Z,8.83
2019-05-13T15:35:46.609Z,7.40
2019-05-13T15:38:16.723Z,8.57
2019-05-13T15:40:46.951Z,8.97
2019-05-13T15:43:17.189Z,14.13
2019-05-13T15:45:47.346Z,15.67
2019-05-13T15:48:18.644Z,13.77
2019-05-13T15:50:51.148Z,12.10
2019-05-13T15:53:39.256Z,10.00
2019-05-13T15:55:52.613Z,8.77
2019-05-13T15:58:38.061Z,9.50
2019-05-13T16:00:54.768Z,13.03
2019-05-13T16:03:25.315Z,13.30
2019-05-13T16:05:55.528Z,10.33
2019-05-13T16:08:25.712Z,16.00
2019-05-13T16:10:55.878Z,13.60
2019-05-13T16:13:25.994Z,15.67
2019-05-13T16:15:56.297Z,16.93
2019-05-13T16:18:26.503Z,15.83
2019-05-13T16:20:56.735Z,13.93
2019-05-13T16:23:26.874Z,14.13
2019-05-13T16:25:57.016Z,12.17
2019-05-13T16:28:27.186Z,10.73
2019-05-13T16:30:57.536Z,13.77
2019-05-13T16:33:31.208Z,13.07
2019-05-13T16:36:02.710Z,13.27
2019-05-13T16:38:32.994Z,13.17
2019-05-13T16:41:03.429Z,25.87
2019-05-13T16:43:34.202Z,26.20
2019-05-13T16:46:07.129Z,24.80
2019-05-13T16:48:36.440Z,28.47
2019-05-13T16:51:06.514Z,30.63
2019-05-13T16:53:36.714Z,17.07
2019-05-13T16:56:06.890Z,19.40
2019-05-13T16:58:37.082Z,19.43
2019-05-13T17:01:07.203Z,15.67
2019-05-13T17:03:37.393Z,19.50
2019-05-13T17:06:07.693Z,21.20
2019-05-13T17:08:37.930Z,17.80
2019-05-13T17:11:08.127Z,20.50
2019-05-13T17:13:38.305Z,20.63
2019-05-13T17:16:08.568Z,17.43
2019-05-13T17:18:38.852Z,18.83
2019-05-13T17:21:09.498Z,24.63
2019-05-13T17:23:41.793Z,33.90
2019-05-13T17:26:11.746Z,65.53
2019-05-13T17:28:42.145Z,55.73
2019-05-13T17:31:12.314Z,44.60
2019-05-13T17:33:42.553Z,34.37
2019-05-13T17:36:12.814Z,30.67
2019-05-13T17:38:43.222Z,24.17
2019-05-13T17:41:13.374Z,25.73
2019-05-13T17:43:43.508Z,28.23
2019-05-13T17:46:13.717Z,26.17
2019-05-13T17:48:43.913Z,28.77
2019-05-13T17:51:16.486Z,31.63
2019-05-13T17:53:46.035Z,29.87
2019-05-13T17:56:16.169Z,25.20
2019-05-13T17:58:46.335Z,20.13
2019-05-13T18:01:16.569Z,24.10
2019-05-13T18:03:47.032Z,18.80
2019-05-13T18:06:17.476Z,16.87
2019-05-13T18:08:48.756Z,19.63
2019-05-13T18:11:19.173Z,22.57
2019-05-13T18:13:51.696Z,35.60
2019-05-13T18:16:21.749Z,42.17
2019-05-13T18:18:52.266Z,56.50
2019-05-13T18:21:22.507Z,38.80
2019-05-13T18:23:52.913Z,42.90
2019-05-13T18:26:23.241Z,39.67
2019-05-13T18:28:53.482Z,38.93
2019-05-13T18:31:24.920Z,36.23
2019-05-13T18:33:55.329Z,37.30
2019-05-13T18:36:25.582Z,38.50
2019-05-13T18:38:56.130Z,42.73
2019-05-13T18:41:26.377Z,46.90
2019-05-13T18:43:56.610Z,39.90
2019-05-13T18:46:26.906Z,44.60
2019-05-13T18:48:59.140Z,39.33
2019-05-13T18:51:28.881Z,36.33
2019-05-13T18:54:01.129Z,34.40
2019-05-13T18:56:32.288Z,34.60
2019-05-13T18:59:02.701Z,46.87
2019-05-13T19:01:33.334Z,34.97
2019-05-13T19:04:03.536Z,39.43
2019-05-13T19:06:33.809Z,39.20
2019-05-13T19:09:05.759Z,27.57
2019-05-13T19:11:36.014Z,27.93
2019-05-13T19:14:06.185Z,31.50
2019-05-13T19:16:36.433Z,28.03
2019-05-13T19:19:13.415Z,31.40
2019-05-13T19:21:38.633Z,26.57
2019-05-13T19:24:10.383Z,35.73
2019-05-13T19:26:41.674Z,61.57
2019-05-13T19:29:11.906Z,49.37
2019-05-13T19:31:42.265Z,47.77
2019-05-13T19:34:12.821Z,39.93
2019-05-13T19:36:43.216Z,38.73
2019-05-13T19:39:13.425Z,41.83
2019-05-13T19:41:43.654Z,43.10
2019-05-13T19:44:14.173Z,48.03
2019-05-13T19:46:44.322Z,53.43
2019-05-13T19:49:28.726Z,53.13
2019-05-13T19:51:46.304Z,43.67
2019-05-13T19:54:16.370Z,29.70
2019-05-13T19:56:46.494Z,26.47
2019-05-13T19:59:16.590Z,33.77
2019-05-13T20:01:46.851Z,61.80
2019-05-13T20:04:17.111Z,59.23
2019-05-13T20:06:47.356Z,98.70
2019-05-13T20:09:17.617Z,46.87
2019-05-13T20:11:47.804Z,71.13
2019-05-13T20:14:18.078Z,53.47
2019-05-13T20:16:52.039Z,78.60
2019-05-13T20:19:22.294Z,81.37
2019-05-13T20:21:52.909Z,65.83
2019-05-13T20:24:23.557Z,72.50
2019-05-13T20:26:53.733Z,50.87
2019-05-13T20:29:25.002Z,43.40
2019-05-13T20:31:55.453Z,40.73
2019-05-13T20:34:25.530Z,31.27
2019-05-13T20:36:55.690Z,40.03
2019-05-13T20:39:25.871Z,31.20
2019-05-13T20:41:56.199Z,45.47
2019-05-13T20:44:26.402Z,34.73
2019-05-13T20:46:56.541Z,31.43
2019-05-13T20:49:26.755Z,21.97
2019-05-13T20:51:56.991Z,19.23
2019-05-13T20:54:27.211Z,18.87
2019-05-13T20:56:57.371Z,21.43
2019-05-13T20:59:27.549Z,18.37
2019-05-13T21:01:57.757Z,23.83
2019-05-13T21:04:27.861Z,23.03
2019-05-13T21:06:58.098Z,17.50
2019-05-13T21:09:28.761Z,15.63
2019-05-13T21:12:01.490Z,14.80
2019-05-13T21:14:32.009Z,12.27
2019-05-13T21:17:02.481Z,16.20
2019-05-13T21:19:39.360Z,25.30
2019-05-13T21:22:04.515Z,19.70
2019-05-13T21:24:34.730Z,21.70
2019-05-13T21:27:04.986Z,29.70
2019-05-13T21:29:35.050Z,32.87
2019-05-13T21:32:05.225Z,21.97
2019-05-13T21:34:35.441Z,27.53
2019-05-13T21:37:05.547Z,23.93
2019-05-13T21:39:35.703Z,24.07
2019-05-13T21:42:05.942Z,17.50
2019-05-13T21:44:36.192Z,24.03
2019-05-13T21:47:06.370Z,28.93
2019-05-13T21:49:36.541Z,28.60
2019-05-13T21:52:06.772Z,47.83
2019-05-13T21:54:36.870Z,49.20
2019-05-13T21:57:06.933Z,36.07
2019-05-13T21:59:37.062Z,26.13
2019-05-13T22:02:07.202Z,56.83
2019-05-13T22:04:37.278Z,68.77
2019-05-13T22:07:07.402Z,53.37
2019-05-13T22:09:37.566Z,50.90
2019-05-13T22:12:07.762Z,46.20
2019-05-13T22:14:37.967Z,34.03
2019-05-13T22:17:08.134Z,19.93
2019-05-13T22:19:38.385Z,30.87
2019-05-13T22:22:08.570Z,35.77
2019-05-13T22:24:41.633Z,22.47
2019-05-13T22:27:13.273Z,27.17
2019-05-13T22:29:43.561Z,23.67
2019-05-13T22:32:13.758Z,18.70
2019-05-13T22:34:43.805Z,19.83
2019-05-13T22:37:13.889Z,17.73
2019-05-13T22:39:44.099Z,16.10
2019-05-13T22:42:14.221Z,15.20
2019-05-13T22:44:44.382Z,16.47
2019-05-13T22:47:15.027Z,15.77
2019-05-13T22:49:45.284Z,20.97
2019-05-13T22:52:15.459Z,18.17
2019-05-13T22:54:45.657Z,17.20
2019-05-13T22:57:15.850Z,20.43
2019-05-13T22:59:45.999Z,16.37
2019-05-13T23:02:16.162Z,19.13
2019-05-13T23:04:46.305Z,17.63
2019-05-13T23:07:16.413Z,18.53
2019-05-13T23:09:46.482Z,18.33
2019-05-13T23:12:16.586Z,15.40
2019-05-13T23:14:46.729Z,22.27
2019-05-13T23:17:16.902Z,18.80
2019-05-13T23:19:47.081Z,18.23
2019-05-13T23:22:17.166Z,19.83
2019-05-13T23:24:47.289Z,19.20
2019-05-13T23:27:17.526Z,19.67
2019-05-13T23:29:47.698Z,19.20
2019-05-13T23:32:17.907Z,20.27
2019-05-13T23:34:48.105Z,20.90
2019-05-13T23:37:18.249Z,23.10
2019-05-13T23:39:48.426Z,21.00
2019-05-13T23:42:18.475Z,22.03
2019-05-13T23:44:48.597Z,20.60
2019-05-13T23:47:18.782Z,23.23
2019-05-13T23:49:51.195Z,23.97
2019-05-13T23:52:22.087Z,20.37
2019-05-13T23:54:52.409Z,22.17
2019-05-13T23:57:22.594Z,23.20
2019-05-13T23:59:52.654Z,23.17
